createdAt,value
2022-08-30T00:01:05.498Z,79.26
2022-08-30T00:03:50.635Z,79.24
2022-08-30T00:06:18.944Z,79.27
2022-08-30T00:08:46.277Z,79.44
2022-08-30T00:11:17.308Z,79.59
2022-08-30T00:13:45.595Z,79.62
2022-08-30T00:16:13.451Z,79.44
2022-08-30T00:18:40.997Z,79.61
2022-08-30T00:21:08.355Z,79.84
2022-08-30T00:23:35.295Z,79.84
2022-08-30T00:26:02.621Z,79.75
2022-08-30T00:28:30.144Z,80.00
2022-08-30T00:30:56.697Z,80.14
2022-08-30T00:33:23.326Z,80.24
2022-08-30T00:35:50.374Z,80.02
2022-08-30T00:38:16.943Z,80.20
2022-08-30T00:40:45.651Z,80.35
2022-08-30T00:43:19.346Z,80.25
2022-08-30T00:45:46.509Z,80.23
2022-08-30T00:48:13.422Z,80.46
2022-08-30T00:50:48.035Z,80.44
2022-08-30T00:53:21.955Z,80.75
2022-08-30T00:55:49.314Z,80.51
2022-08-30T00:58:21.707Z,80.78
2022-08-30T01:00:51.907Z,80.75
2022-08-30T01:03:18.409Z,80.69
2022-08-30T01:05:45.920Z,80.67
2022-08-30T01:08:15.571Z,80.88
2022-08-30T01:10:43.756Z,81.02
2022-08-30T01:13:13.853Z,80.84
2022-08-30T01:15:42.774Z,80.97
2022-08-30T01:18:11.508Z,81.16
2022-08-30T01:21:07.770Z,81.49
2022-08-30T01:23:37.633Z,81.27
2022-08-30T01:26:06.032Z,81.63
2022-08-30T01:28:34.403Z,81.61
2022-08-30T01:31:01.803Z,81.50
2022-08-30T01:33:29.166Z,81.55
2022-08-30T01:35:59.070Z,81.80
2022-08-30T01:38:30.551Z,82.13
2022-08-30T01:41:08.198Z,82.03
2022-08-30T01:43:34.831Z,81.59
2022-08-30T01:46:02.639Z,81.54
2022-08-30T01:48:31.245Z,81.38
2022-08-30T01:50:58.821Z,81.45
2022-08-30T01:53:25.458Z,81.61
2022-08-30T01:55:51.958Z,81.55
2022-08-30T01:58:18.450Z,81.79
2022-08-30T02:00:44.873Z,81.94
2022-08-30T02:03:11.295Z,81.99
2022-08-30T02:05:37.958Z,82.03
2022-08-30T02:08:05.070Z,82.01
2022-08-30T02:10:31.748Z,82.09
2022-08-30T02:12:59.327Z,82.04
2022-08-30T02:15:25.953Z,82.44
2022-08-30T02:17:52.793Z,82.38
2022-08-30T02:20:19.821Z,82.56
2022-08-30T02:22:48.373Z,82.69
2022-08-30T02:25:20.488Z,82.79
2022-08-30T02:27:47.528Z,82.73
2022-08-30T02:30:14.101Z,82.83
2022-08-30T02:32:41.469Z,82.99
2022-08-30T02:35:08.330Z,82.88
2022-08-30T02:37:35.191Z,82.91
2022-08-30T02:40:01.737Z,82.84
2022-08-30T02:42:28.207Z,82.48
2022-08-30T02:44:54.609Z,82.89
2022-08-30T02:47:21.242Z,82.76
2022-08-30T02:49:47.728Z,82.87
2022-08-30T02:52:14.133Z,83.12
2022-08-30T02:54:40.548Z,83.22
2022-08-30T02:57:08.727Z,83.28
2022-08-30T02:59:47.831Z,83.00
2022-08-30T03:02:14.425Z,83.43
2022-08-30T03:04:41.118Z,83.61
2022-08-30T03:07:08.391Z,83.57
2022-08-30T03:09:36.426Z,83.37
2022-08-30T03:12:03.166Z,83.58
2022-08-30T03:14:29.675Z,83.48
2022-08-30T03:16:56.350Z,83.71
2022-08-30T03:19:22.960Z,83.66
2022-08-30T03:21:50.375Z,84.04
2022-08-30T03:24:17.541Z,83.90
2022-08-30T03:26:46.447Z,83.79
2022-08-30T03:29:13.274Z,83.89
2022-08-30T03:31:52.561Z,84.00
2022-08-30T03:34:21.782Z,84.05
2022-08-30T03:36:49.360Z,84.06
2022-08-30T03:39:15.804Z,84.28
2022-08-30T03:41:42.187Z,84.22
2022-08-30T03:44:09.048Z,84.30
2022-08-30T03:46:37.491Z,84.39
2022-08-30T03:49:05.317Z,84.29
2022-08-30T03:51:33.167Z,84.60
2022-08-30T03:54:00.466Z,84.74
2022-08-30T03:56:27.356Z,84.70
2022-08-30T03:58:53.776Z,84.54
2022-08-30T04:01:20.450Z,84.67
2022-08-30T04:03:46.902Z,84.75
2022-08-30T04:06:13.430Z,84.81
2022-08-30T04:08:40.228Z,84.89
2022-08-30T04:11:07.208Z,84.93
2022-08-30T04:13:34.075Z,84.96
2022-08-30T04:16:00.704Z,85.22
2022-08-30T04:18:32.576Z,85.13
2022-08-30T04:20:59.006Z,85.10
2022-08-30T04:23:28.544Z,85.25
2022-08-30T04:25:55.699Z,84.90
2022-08-30T04:28:23.160Z,85.12
2022-08-30T04:30:49.581Z,84.99
2022-08-30T04:33:16.694Z,84.76
2022-08-30T04:35:45.581Z,85.13
2022-08-30T04:38:13.610Z,85.15
2022-08-30T04:40:44.571Z,85.22
2022-08-30T04:43:12.949Z,85.45
2022-08-30T04:45:40.566Z,85.23
2022-08-30T04:48:07.833Z,85.21
2022-08-30T04:50:34.483Z,85.20
2022-08-30T04:53:00.897Z,85.19
2022-08-30T04:55:28.191Z,85.15
2022-08-30T04:57:56.188Z,85.15
2022-08-30T05:00:22.783Z,85.08
2022-08-30T05:02:49.330Z,85.12
2022-08-30T05:05:35.730Z,85.03
2022-08-30T05:08:02.861Z,85.36
2022-08-30T05:10:29.657Z,85.32
2022-08-30T05:12:56.111Z,85.06
2022-08-30T05:15:22.623Z,85.14
2022-08-30T05:17:49.406Z,85.21
2022-08-30T05:20:16.312Z,85.32
2022-08-30T05:22:49.945Z,85.20
2022-08-30T05:25:24.361Z,85.22
2022-08-30T05:27:51.321Z,85.36
2022-08-30T05:30:18.541Z,85.23
2022-08-30T05:32:45.230Z,85.12
2022-08-30T05:35:14.185Z,85.32
2022-08-30T05:37:41.167Z,85.45
2022-08-30T05:40:10.992Z,85.52
2022-08-30T05:42:40.171Z,85.54
2022-08-30T05:45:08.098Z,85.14
2022-08-30T05:47:35.623Z,85.33
2022-08-30T05:50:02.319Z,85.13
2022-08-30T05:52:28.799Z,85.01
2022-08-30T05:55:00.159Z,84.78
2022-08-30T05:57:26.929Z,85.03
2022-08-30T05:59:53.527Z,84.69
2022-08-30T06:02:20.090Z,84.85
2022-08-30T06:04:46.501Z,84.84
2022-08-30T06:07:15.845Z,84.77
2022-08-30T06:09:44.358Z,84.55
2022-08-30T06:12:10.789Z,84.63
2022-08-30T06:14:39.480Z,84.24
2022-08-30T06:17:07.000Z,84.34
2022-08-30T06:19:33.581Z,83.93
2022-08-30T06:22:00.880Z,83.76
2022-08-30T06:24:41.018Z,83.55
2022-08-30T06:27:10.150Z,83.25
2022-08-30T06:29:36.667Z,82.79
2022-08-30T06:32:03.564Z,83.21
2022-08-30T06:34:30.065Z,82.80
2022-08-30T06:36:56.605Z,82.57
2022-08-30T06:39:23.164Z,82.32
2022-08-30T06:41:49.597Z,82.04
2022-08-30T06:44:16.552Z,81.73
2022-08-30T06:46:43.587Z,81.09
2022-08-30T06:49:10.105Z,80.53
2022-08-30T06:51:39.828Z,80.25
2022-08-30T06:54:10.720Z,79.51
2022-08-30T06:56:40.304Z,79.29
2022-08-30T06:59:08.773Z,78.79
2022-08-30T07:01:35.358Z,78.34
2022-08-30T07:04:01.909Z,77.50
2022-08-30T07:06:29.159Z,76.62
2022-08-30T07:08:56.692Z,76.20
2022-08-30T07:11:41.928Z,75.99
2022-08-30T07:14:08.445Z,75.73
2022-08-30T07:16:35.819Z,75.06
2022-08-30T07:19:03.325Z,74.60
2022-08-30T07:21:34.338Z,74.08
2022-08-30T07:24:00.962Z,73.50
2022-08-30T07:26:34.899Z,71.89
2022-08-30T07:29:02.312Z,71.33
2022-08-30T07:31:29.705Z,70.25
2022-08-30T07:33:56.391Z,69.63
2022-08-30T07:36:24.397Z,68.80
2022-08-30T07:38:52.492Z,68.88
2022-08-30T07:41:31.029Z,68.29
2022-08-30T07:43:58.127Z,67.93
2022-08-30T07:46:25.922Z,67.32
2022-08-30T07:48:54.284Z,66.96
2022-08-30T07:51:23.885Z,66.29
2022-08-30T07:53:50.614Z,65.33
2022-08-30T07:56:17.363Z,64.23
2022-08-30T07:58:43.837Z,63.27
2022-08-30T08:01:12.889Z,61.59
2022-08-30T08:03:40.731Z,61.57
2022-08-30T08:06:09.130Z,60.59
2022-08-30T08:08:36.814Z,59.83
2022-08-30T08:11:16.310Z,59.54
2022-08-30T08:13:53.143Z,58.43
2022-08-30T08:16:24.357Z,57.92
2022-08-30T08:18:51.919Z,57.84
2022-08-30T08:21:18.442Z,57.47
2022-08-30T08:23:45.007Z,57.74
2022-08-30T08:26:11.536Z,57.41
2022-08-30T08:28:37.989Z,57.05
2022-08-30T08:31:16.291Z,56.54
2022-08-30T08:33:42.805Z,55.73
2022-08-30T08:36:09.823Z,55.40
2022-08-30T08:38:37.010Z,54.92
2022-08-30T08:41:40.081Z,55.52
2022-08-30T08:44:35.079Z,54.79
2022-08-30T08:47:16.221Z,54.06
2022-08-30T08:49:46.280Z,52.92
2022-08-30T08:52:43.952Z,53.08
2022-08-30T08:55:14.182Z,52.80
2022-08-30T08:57:41.603Z,51.54
2022-08-30T09:00:12.056Z,51.74
2022-08-30T09:02:45.079Z,51.05
2022-08-30T09:05:20.754Z,50.60
2022-08-30T09:08:00.375Z,49.80
2022-08-30T09:10:47.204Z,49.65
2022-08-30T09:13:14.278Z,49.26
2022-08-30T09:15:41.097Z,49.44
2022-08-30T09:18:19.153Z,49.68
2022-08-30T09:20:49.911Z,49.22
2022-08-30T09:23:16.242Z,48.88
2022-08-30T09:26:09.036Z,49.09
2022-08-30T09:28:47.136Z,48.61
2022-08-30T09:31:20.675Z,47.88
2022-08-30T09:34:01.626Z,48.42
2022-08-30T09:36:42.035Z,47.57
2022-08-30T09:39:27.608Z,47.74
2022-08-30T09:41:55.116Z,46.35
2022-08-30T09:44:27.915Z,45.32
2022-08-30T09:46:57.330Z,44.91
2022-08-30T09:49:34.677Z,45.10
2022-08-30T09:52:34.820Z,45.10
2022-08-30T09:55:15.098Z,45.45
2022-08-30T09:57:57.955Z,45.60
2022-08-30T10:00:28.954Z,45.34
2022-08-30T10:03:40.241Z,45.77
2022-08-30T10:06:23.663Z,45.04
2022-08-30T10:09:03.886Z,44.14
2022-08-30T10:11:44.817Z,43.42
2022-08-30T10:14:29.738Z,43.76
2022-08-30T10:17:04.353Z,43.27
2022-08-30T10:19:51.925Z,43.78
2022-08-30T10:22:46.526Z,43.78
2022-08-30T10:25:27.510Z,43.88
2022-08-30T10:28:00.273Z,44.27
2022-08-30T10:30:28.842Z,43.20
2022-08-30T10:33:12.079Z,44.14
2022-08-30T10:35:53.088Z,43.19
2022-08-30T10:38:31.053Z,42.99
2022-08-30T10:41:13.980Z,43.00
2022-08-30T10:43:51.263Z,43.33
2022-08-30T10:46:33.521Z,42.64
2022-08-30T10:49:05.037Z,41.95
2022-08-30T10:51:36.342Z,42.18
2022-08-30T10:54:41.828Z,40.79
2022-08-30T10:57:09.641Z,40.32
2022-08-30T10:59:42.641Z,40.40
2022-08-30T11:02:35.499Z,40.38
2022-08-30T11:05:33.017Z,40.30
2022-08-30T11:08:50.386Z,40.64
2022-08-30T11:12:02.549Z,40.45
2022-08-30T11:14:30.392Z,39.41
2022-08-30T11:17:00.270Z,39.80
2022-08-30T11:19:37.117Z,39.46
2022-08-30T11:22:29.442Z,38.57
2022-08-30T11:25:38.603Z,38.55
2022-08-30T11:28:06.361Z,37.66
2022-08-30T11:30:32.762Z,37.42
2022-08-30T11:33:10.362Z,37.40
2022-08-30T11:35:37.224Z,37.85
2022-08-30T11:38:38.918Z,37.81
2022-08-30T11:41:28.868Z,37.20
2022-08-30T11:44:23.199Z,37.19
2022-08-30T11:46:58.488Z,36.06
2022-08-30T11:49:52.609Z,36.36
2022-08-30T11:52:43.528Z,36.43
2022-08-30T11:55:22.541Z,36.52
2022-08-30T11:58:20.156Z,36.52
2022-08-30T12:00:52.653Z,36.40
2022-08-30T12:03:19.614Z,37.15
2022-08-30T12:05:52.081Z,35.40
2022-08-30T12:08:34.178Z,35.98
2022-08-30T12:11:12.905Z,35.21
2022-08-30T12:13:42.399Z,34.53
2022-08-30T12:16:14.832Z,34.80
2022-08-30T12:19:19.005Z,35.02
2022-08-30T12:21:56.126Z,34.26
2022-08-30T12:24:36.569Z,34.18
2022-08-30T12:27:32.580Z,34.68
2022-08-30T12:30:08.288Z,33.70
2022-08-30T12:32:45.302Z,33.25
2022-08-30T12:35:24.460Z,33.70
2022-08-30T12:38:01.915Z,33.14
2022-08-30T12:40:31.598Z,32.65
2022-08-30T12:43:01.513Z,33.02
2022-08-30T12:45:35.763Z,33.50
2022-08-30T12:48:05.177Z,32.97
2022-08-30T12:50:37.618Z,32.68
2022-08-30T12:53:13.884Z,34.18
2022-08-30T12:56:00.838Z,35.00
2022-08-30T12:58:53.361Z,34.45
2022-08-30T13:01:29.642Z,35.42
2022-08-30T13:04:00.182Z,34.96
2022-08-30T13:06:53.239Z,35.11
2022-08-30T13:09:24.298Z,36.16
2022-08-30T13:11:51.550Z,35.27
2022-08-30T13:14:34.936Z,35.46
2022-08-30T13:17:20.523Z,35.62
2022-08-30T13:20:17.087Z,35.46
2022-08-30T13:23:00.669Z,34.86
2022-08-30T13:25:27.391Z,35.17
2022-08-30T13:27:54.750Z,35.06
2022-08-30T13:30:21.219Z,34.80
2022-08-30T13:32:47.672Z,34.93
2022-08-30T13:35:14.255Z,35.05
2022-08-30T13:37:49.583Z,34.76
2022-08-30T13:40:19.024Z,34.49
2022-08-30T13:42:47.486Z,34.20
2022-08-30T13:48:02.511Z,33.83
2022-08-30T13:50:30.444Z,33.71
2022-08-30T13:52:57.372Z,33.36
2022-08-30T13:55:24.108Z,33.32
2022-08-30T13:57:54.583Z,33.02
2022-08-30T14:00:22.853Z,32.07
2022-08-30T14:02:54.955Z,32.59
2022-08-30T14:05:50.246Z,32.59
2022-08-30T14:11:11.792Z,32.31
2022-08-30T14:14:14.448Z,32.12
2022-08-30T14:16:27.882Z,31.49
2022-08-30T14:18:55.637Z,31.78
2022-08-30T14:21:24.432Z,32.68
2022-08-30T14:23:56.018Z,32.16
2022-08-30T14:26:32.924Z,31.62
2022-08-30T14:29:00.750Z,31.71
2022-08-30T14:31:27.462Z,30.83
2022-08-30T14:33:55.550Z,32.09
2022-08-30T14:36:22.399Z,31.31
2022-08-30T14:38:48.993Z,31.13
2022-08-30T14:41:16.477Z,32.05
2022-08-30T14:43:43.429Z,32.09
2022-08-30T14:46:10.680Z,32.02
2022-08-30T14:48:38.304Z,32.92
2022-08-30T14:51:22.650Z,32.08
2022-08-30T14:53:52.565Z,32.64
2022-08-30T14:56:20.093Z,33.49
2022-08-30T14:58:51.449Z,32.72
2022-08-30T15:01:19.107Z,32.61
2022-08-30T15:03:45.854Z,32.96
2022-08-30T15:06:12.808Z,33.31
2022-08-30T15:08:39.546Z,33.02
2022-08-30T15:11:14.416Z,33.80
2022-08-30T15:13:42.540Z,33.54
2022-08-30T15:16:15.288Z,33.90
2022-08-30T15:18:42.245Z,34.15
2022-08-30T15:21:09.510Z,33.95
2022-08-30T15:23:39.290Z,34.60
2022-08-30T15:26:08.058Z,34.23
2022-08-30T15:28:35.890Z,34.13
2022-08-30T15:31:06.305Z,33.93
2022-08-30T15:33:35.861Z,34.12
2022-08-30T15:36:04.855Z,34.29
2022-08-30T15:38:32.088Z,35.04
2022-08-30T15:41:03.460Z,35.04
2022-08-30T15:43:30.573Z,35.25
2022-08-30T15:46:15.407Z,35.70
2022-08-30T15:48:42.585Z,35.23
2022-08-30T15:51:12.852Z,35.29
2022-08-30T15:53:41.929Z,35.89
2022-08-30T15:56:10.656Z,35.75
2022-08-30T15:58:38.545Z,36.03
2022-08-30T16:01:06.191Z,36.36
2022-08-30T16:03:33.941Z,35.86
2022-08-30T16:06:01.048Z,36.07
2022-08-30T16:08:29.342Z,35.81
2022-08-30T16:10:55.941Z,35.80
2022-08-30T16:13:22.868Z,35.90
2022-08-30T16:15:49.887Z,35.75
2022-08-30T16:18:16.581Z,35.69
2022-08-30T16:20:43.931Z,35.82
2022-08-30T16:23:11.136Z,35.05
2022-08-30T16:25:39.945Z,35.03
2022-08-30T16:28:08.031Z,35.41
2022-08-30T16:30:36.409Z,34.90
2022-08-30T16:33:02.910Z,35.00
2022-08-30T16:35:29.407Z,34.38
2022-08-30T16:37:59.281Z,34.73
2022-08-30T16:40:25.817Z,33.86
2022-08-30T16:42:52.456Z,33.85
2022-08-30T16:45:19.242Z,34.05
2022-08-30T16:47:45.935Z,34.74
2022-08-30T16:50:13.105Z,34.34
2022-08-30T16:52:43.992Z,34.27
2022-08-30T16:55:10.949Z,34.59
2022-08-30T16:57:38.642Z,35.49
2022-08-30T17:00:11.147Z,35.99
2022-08-30T17:02:40.183Z,35.98
2022-08-30T17:05:09.595Z,35.96
2022-08-30T17:07:39.092Z,36.70
2022-08-30T17:10:06.047Z,36.65
2022-08-30T17:12:35.399Z,37.33
2022-08-30T17:17:50.229Z,37.99
2022-08-30T17:20:19.515Z,38.17
2022-08-30T17:22:46.284Z,38.51
2022-08-30T17:25:13.370Z,38.86
2022-08-30T17:27:40.514Z,39.19
2022-08-30T17:30:08.657Z,39.36
2022-08-30T17:32:35.193Z,39.64
2022-08-30T17:35:01.971Z,40.04
2022-08-30T17:37:28.644Z,40.25
2022-08-30T17:39:56.001Z,40.53
2022-08-30T17:42:22.487Z,41.04
2022-08-30T17:44:55.964Z,41.12
2022-08-30T17:47:22.817Z,41.54
2022-08-30T17:49:51.026Z,41.56
2022-08-30T17:52:17.550Z,42.00
2022-08-30T17:54:44.296Z,42.08
2022-08-30T17:57:13.057Z,42.55
2022-08-30T17:59:40.095Z,42.61
2022-08-30T18:02:06.971Z,43.28
2022-08-30T18:04:38.064Z,43.37
2022-08-30T18:07:04.642Z,43.77
2022-08-30T18:09:34.060Z,44.00
2022-08-30T18:12:00.870Z,44.33
2022-08-30T18:14:27.947Z,44.49
2022-08-30T18:16:54.945Z,44.79
2022-08-30T18:19:23.277Z,45.12
2022-08-30T18:21:50.043Z,45.52
2022-08-30T18:24:17.218Z,45.73
2022-08-30T18:26:43.991Z,46.02
2022-08-30T18:29:11.108Z,46.50
2022-08-30T18:31:38.311Z,46.34
2022-08-30T18:34:04.809Z,46.59
2022-08-30T18:36:31.457Z,47.06
2022-08-30T18:38:58.226Z,47.10
2022-08-30T18:41:25.864Z,47.50
2022-08-30T18:44:10.900Z,47.73
2022-08-30T18:46:39.225Z,47.90
2022-08-30T18:49:22.369Z,48.23
2022-08-30T18:51:50.044Z,48.56
2022-08-30T18:54:16.604Z,48.58
2022-08-30T18:56:45.125Z,48.97
2022-08-30T18:59:11.641Z,49.32
2022-08-30T19:01:38.133Z,49.58
2022-08-30T19:04:05.067Z,49.79
2022-08-30T19:06:31.867Z,50.10
2022-08-30T19:08:58.482Z,50.37
2022-08-30T19:11:26.354Z,50.46
2022-08-30T19:13:52.756Z,50.87
2022-08-30T19:16:20.528Z,50.90
2022-08-30T19:18:46.993Z,51.03
2022-08-30T19:21:13.823Z,51.27
2022-08-30T19:23:41.308Z,51.82
2022-08-30T19:26:07.856Z,52.24
2022-08-30T19:28:37.481Z,52.23
2022-08-30T19:31:04.044Z,52.90
2022-08-30T19:33:33.373Z,53.42
2022-08-30T19:36:00.496Z,53.29
2022-08-30T19:38:27.252Z,53.87
2022-08-30T19:40:58.403Z,53.85
2022-08-30T19:43:25.214Z,54.26
2022-08-30T19:45:56.356Z,54.62
2022-08-30T19:48:24.613Z,54.00
2022-08-30T19:50:58.977Z,54.86
2022-08-30T19:53:25.611Z,55.31
2022-08-30T19:55:52.087Z,55.99
2022-08-30T19:58:18.953Z,56.16
2022-08-30T20:00:54.399Z,56.13
2022-08-30T20:03:27.843Z,56.58
2022-08-30T20:05:54.295Z,56.39
2022-08-30T20:08:20.953Z,57.00
2022-08-30T20:10:47.754Z,57.40
2022-08-30T20:13:14.331Z,57.82
2022-08-30T20:15:40.830Z,58.29
2022-08-30T20:18:13.102Z,58.88
2022-08-30T20:20:41.840Z,59.25
2022-08-30T20:23:16.346Z,59.35
2022-08-30T20:25:50.698Z,59.52
2022-08-30T20:28:18.484Z,60.33
2022-08-30T20:30:45.117Z,60.44
2022-08-30T20:33:11.550Z,60.79
2022-08-30T20:35:38.531Z,61.32
2022-08-30T20:38:07.026Z,61.43
2022-08-30T20:40:34.976Z,61.79
2022-08-30T20:43:01.969Z,61.84
2022-08-30T20:45:31.012Z,62.27
2022-08-30T20:47:57.790Z,62.57
2022-08-30T20:50:24.238Z,62.53
2022-08-30T20:52:50.855Z,62.71
2022-08-30T20:55:17.427Z,63.26
2022-08-30T20:57:44.139Z,63.21
2022-08-30T21:00:13.527Z,63.17
2022-08-30T21:02:46.503Z,63.63
2022-08-30T21:05:15.469Z,63.57
2022-08-30T21:07:44.315Z,64.13
2022-08-30T21:10:11.593Z,63.97
2022-08-30T21:12:38.870Z,64.52
2022-08-30T21:15:27.343Z,64.49
2022-08-30T21:17:54.989Z,64.44
2022-08-30T21:20:21.469Z,64.74
2022-08-30T21:22:47.853Z,64.97
2022-08-30T21:25:14.414Z,65.19
2022-08-30T21:27:42.454Z,65.31
2022-08-30T21:30:09.970Z,65.43
2022-08-30T21:32:36.364Z,65.43
2022-08-30T21:35:21.528Z,65.38
2022-08-30T21:37:48.140Z,65.53
2022-08-30T21:40:17.048Z,65.82
2022-08-30T21:42:45.847Z,65.71
2022-08-30T21:45:13.731Z,65.40
2022-08-30T21:47:40.502Z,65.80
2022-08-30T21:50:07.165Z,65.74
2022-08-30T21:52:36.262Z,66.03
2022-08-30T21:55:03.007Z,65.89
2022-08-30T21:57:29.631Z,66.34
2022-08-30T21:59:56.047Z,66.22
2022-08-30T22:02:22.716Z,66.16
2022-08-30T22:04:49.229Z,66.43
2022-08-30T22:07:15.806Z,66.13
2022-08-30T22:09:45.331Z,66.27
2022-08-30T22:12:12.038Z,66.38
2022-08-30T22:14:38.610Z,66.18
2022-08-30T22:17:05.522Z,66.54
2022-08-30T22:19:33.704Z,66.55
2022-08-30T22:22:01.620Z,66.37
2022-08-30T22:24:31.860Z,66.21
2022-08-30T22:26:59.871Z,66.42
2022-08-30T22:29:26.350Z,66.65
2022-08-30T22:31:52.901Z,66.82
2022-08-30T22:34:19.342Z,66.74
2022-08-30T22:36:45.863Z,66.74
2022-08-30T22:39:13.261Z,66.86
2022-08-30T22:41:45.588Z,66.85
2022-08-30T22:44:12.041Z,66.97
2022-08-30T22:46:39.546Z,66.63
2022-08-30T22:49:08.121Z,66.62
2022-08-30T22:51:35.467Z,66.80
2022-08-30T22:54:03.655Z,66.76
2022-08-30T22:56:31.083Z,66.95
2022-08-30T22:58:58.085Z,66.48
2022-08-30T23:01:30.452Z,66.59
2022-08-30T23:04:00.997Z,66.63
2022-08-30T23:06:28.658Z,66.46
2022-08-30T23:08:55.113Z,66.55
2022-08-30T23:11:22.087Z,66.57
2022-08-30T23:13:48.676Z,66.63
2022-08-30T23:16:16.348Z,66.90
2022-08-30T23:18:44.890Z,67.07
2022-08-30T23:21:12.837Z,66.77
2022-08-30T23:23:59.064Z,66.94
2022-08-30T23:26:44.334Z,67.09
2022-08-30T23:29:30.610Z,67.15
2022-08-30T23:32:15.956Z,67.06
2022-08-30T23:35:01.318Z,67.33
2022-08-30T23:37:46.745Z,67.11
2022-08-30T23:40:35.228Z,67.26
2022-08-30T23:43:20.432Z,67.43
2022-08-30T23:46:05.244Z,67.58
2022-08-30T23:48:52.164Z,67.81
2022-08-30T23:51:37.262Z,67.58
2022-08-30T23:54:23.175Z,67.68
2022-08-30T23:57:08.485Z,67.86
2022-08-30T23:59:53.844Z,68.01
